sensor_id;sensor_type;location;lat;lon;timestamp;P1;durP1;ratioP1;P2;durP2;ratioP2
18822;SDS011;9540;51.550;7.980;2023-01-19T00:00:02;21.00;;;9.60;;
18822;SDS011;9540;51.550;7.980;2023-01-19T00:02:30;24.23;;;10.30;;
18822;SDS011;9540;51.550;7.980;2023-01-19T00:04:57;17.53;;;9.77;;
18822;SDS011;9540;51.550;7.980;2023-01-19T00:07:28;14.20;;;9.83;;
18822;SDS011;9540;51.550;7.980;2023-01-19T00:09:55;19.80;;;10.70;;
18822;SDS011;9540;51.550;7.980;2023-01-19T00:12:24;19.53;;;10.80;;
18822;SDS011;9540;51.550;7.980;2023-01-19T00:14:51;21.50;;;11.47;;
18822;SDS011;9540;51.550;7.980;2023-01-19T00:17:18;18.30;;;10.70;;
18822;SDS011;9540;51.550;7.980;2023-01-19T00:19:46;18.40;;;10.03;;
18822;SDS011;9540;51.550;7.980;2023-01-19T00:22:13;16.43;;;10.97;;
18822;SDS011;9540;51.550;7.980;2023-01-19T00:24:40;19.73;;;11.33;;
18822;SDS011;9540;51.550;7.980;2023-01-19T00:27:08;18.27;;;10.33;;
18822;SDS011;9540;51.550;7.980;2023-01-19T00:29:37;17.33;;;9.87;;
18822;SDS011;9540;51.550;7.980;2023-01-19T00:32:04;20.30;;;11.33;;
18822;SDS011;9540;51.550;7.980;2023-01-19T00:34:32;19.70;;;11.50;;
18822;SDS011;9540;51.550;7.980;2023-01-19T00:37:03;18.27;;;11.00;;
18822;SDS011;9540;51.550;7.980;2023-01-19T00:39:30;17.13;;;10.93;;
18822;SDS011;9540;51.550;7.980;2023-01-19T00:41:58;18.63;;;10.80;;
18822;SDS011;9540;51.550;7.980;2023-01-19T00:44:44;16.00;;;10.43;;
18822;SDS011;9540;51.550;7.980;2023-01-19T00:47:11;16.73;;;10.60;;
18822;SDS011;9540;51.550;7.980;2023-01-19T00:49:38;18.27;;;10.30;;
18822;SDS011;9540;51.550;7.980;2023-01-19T00:52:06;25.70;;;11.83;;
18822;SDS011;9540;51.550;7.980;2023-01-19T00:54:34;16.87;;;10.30;;
18822;SDS011;9540;51.550;7.980;2023-01-19T00:57:02;18.17;;;10.13;;
18822;SDS011;9540;51.550;7.980;2023-01-19T00:59:29;16.20;;;10.13;;
18822;SDS011;9540;51.550;7.980;2023-01-19T01:01:58;14.00;;;9.60;;
18822;SDS011;9540;51.550;7.980;2023-01-19T01:04:25;17.37;;;10.40;;
18822;SDS011;9540;51.550;7.980;2023-01-19T01:06:52;14.47;;;10.03;;
18822;SDS011;9540;51.550;7.980;2023-01-19T01:09:19;14.87;;;9.53;;
18822;SDS011;9540;51.550;7.980;2023-01-19T01:11:46;18.60;;;10.27;;
18822;SDS011;9540;51.550;7.980;2023-01-19T01:14:13;18.27;;;9.67;;
18822;SDS011;9540;51.550;7.980;2023-01-19T01:16:41;15.53;;;9.67;;
18822;SDS011;9540;51.550;7.980;2023-01-19T01:19:10;18.97;;;10.53;;
18822;SDS011;9540;51.550;7.980;2023-01-19T01:21:37;18.03;;;10.07;;
18822;SDS011;9540;51.550;7.980;2023-01-19T01:24:04;17.20;;;9.07;;
18822;SDS011;9540;51.550;7.980;2023-01-19T01:26:32;16.43;;;10.10;;
18822;SDS011;9540;51.550;7.980;2023-01-19T01:28:59;16.20;;;9.37;;
18822;SDS011;9540;51.550;7.980;2023-01-19T01:31:27;18.00;;;9.70;;
18822;SDS011;9540;51.550;7.980;2023-01-19T01:33:54;16.27;;;9.60;;
18822;SDS011;9540;51.550;7.980;2023-01-19T01:36:23;16.47;;;9.33;;
18822;SDS011;9540;51.550;7.980;2023-01-19T01:38:53;16.10;;;9.50;;
18822;SDS011;9540;51.550;7.980;2023-01-19T01:41:20;17.83;;;9.30;;
18822;SDS011;9540;51.550;7.980;2023-01-19T01:43:48;13.60;;;9.77;;
18822;SDS011;9540;51.550;7.980;2023-01-19T01:46:17;18.17;;;10.37;;
18822;SDS011;9540;51.550;7.980;2023-01-19T01:48:46;17.37;;;10.27;;
18822;SDS011;9540;51.550;7.980;2023-01-19T01:51:18;17.27;;;10.47;;
18822;SDS011;9540;51.550;7.980;2023-01-19T01:53:53;17.70;;;10.30;;
18822;SDS011;9540;51.550;7.980;2023-01-19T01:56:33;18.47;;;10.03;;
18822;SDS011;9540;51.550;7.980;2023-01-19T01:59:03;18.13;;;10.30;;
18822;SDS011;9540;51.550;7.980;2023-01-19T02:01:32;23.30;;;11.70;;
18822;SDS011;9540;51.550;7.980;2023-01-19T02:04:17;20.07;;;10.90;;
18822;SDS011;9540;51.550;7.980;2023-01-19T02:06:47;16.57;;;10.93;;
18822;SDS011;9540;51.550;7.980;2023-01-19T02:09:33;17.70;;;10.40;;
18822;SDS011;9540;51.550;7.980;2023-01-19T02:12:19;20.07;;;11.53;;
18822;SDS011;9540;51.550;7.980;2023-01-19T02:15:05;18.80;;;11.20;;
18822;SDS011;9540;51.550;7.980;2023-01-19T02:17:40;27.03;;;12.30;;
18822;SDS011;9540;51.550;7.980;2023-01-19T02:20:07;17.37;;;11.43;;
18822;SDS011;9540;51.550;7.980;2023-01-19T02:22:39;20.50;;;10.97;;
18822;SDS011;9540;51.550;7.980;2023-01-19T02:25:13;21.47;;;10.37;;
18822;SDS011;9540;51.550;7.980;2023-01-19T02:27:41;16.00;;;10.23;;
18822;SDS011;9540;51.550;7.980;2023-01-19T02:30:09;20.63;;;10.27;;
18822;SDS011;9540;51.550;7.980;2023-01-19T02:32:37;19.13;;;9.67;;
18822;SDS011;9540;51.550;7.980;2023-01-19T02:35:05;16.17;;;10.23;;
18822;SDS011;9540;51.550;7.980;2023-01-19T02:37:33;19.20;;;10.17;;
18822;SDS011;9540;51.550;7.980;2023-01-19T02:40:04;18.33;;;10.17;;
18822;SDS011;9540;51.550;7.980;2023-01-19T02:42:38;17.80;;;9.80;;
18822;SDS011;9540;51.550;7.980;2023-01-19T02:45:09;18.67;;;9.67;;
18822;SDS011;9540;51.550;7.980;2023-01-19T02:47:38;15.90;;;9.43;;
18822;SDS011;9540;51.550;7.980;2023-01-19T02:53:01;21.03;;;8.70;;
18822;SDS011;9540;51.550;7.980;2023-01-19T02:55:38;16.37;;;9.70;;
18822;SDS011;9540;51.550;7.980;2023-01-19T02:58:09;18.73;;;8.70;;
18822;SDS011;9540;51.550;7.980;2023-01-19T03:00:41;15.63;;;9.37;;
18822;SDS011;9540;51.550;7.980;2023-01-19T03:03:18;16.43;;;9.27;;
18822;SDS011;9540;51.550;7.980;2023-01-19T03:05:53;17.07;;;9.27;;
18822;SDS011;9540;51.550;7.980;2023-01-19T03:08:30;15.67;;;9.57;;
18822;SDS011;9540;51.550;7.980;2023-01-19T03:11:07;15.67;;;8.93;;
18822;SDS011;9540;51.550;7.980;2023-01-19T03:13:40;16.40;;;9.03;;
18822;SDS011;9540;51.550;7.980;2023-01-19T03:16:12;15.07;;;9.07;;
18822;SDS011;9540;51.550;7.980;2023-01-19T03:18:44;17.13;;;8.60;;
18822;SDS011;9540;51.550;7.980;2023-01-19T03:21:14;14.47;;;8.20;;
18822;SDS011;9540;51.550;7.980;2023-01-19T03:23:44;17.20;;;8.83;;
18822;SDS011;9540;51.550;7.980;2023-01-19T03:26:16;11.20;;;8.00;;
18822;SDS011;9540;51.550;7.980;2023-01-19T03:28:48;13.93;;;8.03;;
18822;SDS011;9540;51.550;7.980;2023-01-19T03:31:18;15.17;;;7.60;;
18822;SDS011;9540;51.550;7.980;2023-01-19T03:33:48;15.27;;;8.17;;
18822;SDS011;9540;51.550;7.980;2023-01-19T03:36:19;14.90;;;7.33;;
18822;SDS011;9540;51.550;7.980;2023-01-19T03:38:50;13.47;;;7.67;;
18822;SDS011;9540;51.550;7.980;2023-01-19T03:41:20;11.97;;;7.00;;
18822;SDS011;9540;51.550;7.980;2023-01-19T03:43:50;9.50;;;7.23;;
18822;SDS011;9540;51.550;7.980;2023-01-19T03:46:18;17.53;;;7.70;;
18822;SDS011;9540;51.550;7.980;2023-01-19T03:48:46;17.03;;;6.87;;
18822;SDS011;9540;51.550;7.980;2023-01-19T03:51:14;8.57;;;6.77;;
18822;SDS011;9540;51.550;7.980;2023-01-19T03:53:43;11.93;;;7.50;;
18822;SDS011;9540;51.550;7.980;2023-01-19T03:56:15;16.03;;;7.67;;
18822;SDS011;9540;51.550;7.980;2023-01-19T03:58:43;11.43;;;7.03;;
18822;SDS011;9540;51.550;7.980;2023-01-19T04:01:12;11.90;;;7.53;;
18822;SDS011;9540;51.550;7.980;2023-01-19T04:03:40;11.40;;;7.20;;
18822;SDS011;9540;51.550;7.980;2023-01-19T04:06:07;12.70;;;7.23;;
18822;SDS011;9540;51.550;7.980;2023-01-19T04:08:35;14.73;;;7.23;;
18822;SDS011;9540;51.550;7.980;2023-01-19T04:11:02;10.80;;;7.03;;
18822;SDS011;9540;51.550;7.980;2023-01-19T04:13:29;15.97;;;7.50;;
18822;SDS011;9540;51.550;7.980;2023-01-19T04:15:58;14.47;;;7.67;;
18822;SDS011;9540;51.550;7.980;2023-01-19T04:18:27;12.33;;;7.43;;
18822;SDS011;9540;51.550;7.980;2023-01-19T04:20:58;11.13;;;7.33;;
18822;SDS011;9540;51.550;7.980;2023-01-19T04:23:25;15.20;;;7.27;;
18822;SDS011;9540;51.550;7.980;2023-01-19T04:25:58;13.50;;;7.27;;
18822;SDS011;9540;51.550;7.980;2023-01-19T04:28:27;11.30;;;7.33;;
18822;SDS011;9540;51.550;7.980;2023-01-19T04:30:54;13.00;;;6.43;;
18822;SDS011;9540;51.550;7.980;2023-01-19T04:33:21;14.17;;;6.60;;
18822;SDS011;9540;51.550;7.980;2023-01-19T04:35:50;10.63;;;6.57;;
18822;SDS011;9540;51.550;7.980;2023-01-19T04:38:18;17.07;;;8.33;;
18822;SDS011;9540;51.550;7.980;2023-01-19T04:40:48;13.53;;;7.73;;
18822;SDS011;9540;51.550;7.980;2023-01-19T04:43:16;16.93;;;7.33;;
18822;SDS011;9540;51.550;7.980;2023-01-19T04:45:44;13.33;;;7.20;;
18822;SDS011;9540;51.550;7.980;2023-01-19T04:48:11;7.67;;;5.90;;
18822;SDS011;9540;51.550;7.980;2023-01-19T04:50:39;9.10;;;6.93;;
18822;SDS011;9540;51.550;7.980;2023-01-19T04:53:08;8.97;;;5.83;;
18822;SDS011;9540;51.550;7.980;2023-01-19T04:55:37;15.40;;;6.67;;
18822;SDS011;9540;51.550;7.980;2023-01-19T04:58:05;13.37;;;6.80;;
18822;SDS011;9540;51.550;7.980;2023-01-19T05:00:32;12.13;;;6.10;;
18822;SDS011;9540;51.550;7.980;2023-01-19T05:03:00;12.33;;;6.17;;
18822;SDS011;9540;51.550;7.980;2023-01-19T05:05:27;15.37;;;7.40;;
18822;SDS011;9540;51.550;7.980;2023-01-19T05:07:55;12.90;;;6.13;;
18822;SDS011;9540;51.550;7.980;2023-01-19T05:10:23;11.27;;;6.63;;
18822;SDS011;9540;51.550;7.980;2023-01-19T05:12:50;10.27;;;6.70;;
18822;SDS011;9540;51.550;7.980;2023-01-19T05:15:17;12.87;;;6.60;;
18822;SDS011;9540;51.550;7.980;2023-01-19T05:17:44;10.60;;;6.40;;
18822;SDS011;9540;51.550;7.980;2023-01-19T05:20:12;11.57;;;5.60;;
18822;SDS011;9540;51.550;7.980;2023-01-19T05:22:39;10.97;;;6.50;;
18822;SDS011;9540;51.550;7.980;2023-01-19T05:25:07;11.77;;;6.80;;
18822;SDS011;9540;51.550;7.980;2023-01-19T05:27:36;9.33;;;6.30;;
18822;SDS011;9540;51.550;7.980;2023-01-19T05:30:03;20.43;;;7.23;;
18822;SDS011;9540;51.550;7.980;2023-01-19T05:32:31;13.97;;;6.63;;
18822;SDS011;9540;51.550;7.980;2023-01-19T05:34:58;16.83;;;6.47;;
18822;SDS011;9540;51.550;7.980;2023-01-19T05:37:25;8.93;;;6.50;;
18822;SDS011;9540;51.550;7.980;2023-01-19T05:39:52;13.63;;;7.00;;
18822;SDS011;9540;51.550;7.980;2023-01-19T05:42:19;8.33;;;5.90;;
18822;SDS011;9540;51.550;7.980;2023-01-19T05:44:48;11.33;;;5.57;;
18822;SDS011;9540;51.550;7.980;2023-01-19T05:47:15;10.83;;;5.43;;
18822;SDS011;9540;51.550;7.980;2023-01-19T05:49:42;10.73;;;6.23;;
18822;SDS011;9540;51.550;7.980;2023-01-19T05:52:09;13.00;;;7.27;;
18822;SDS011;9540;51.550;7.980;2023-01-19T05:54:36;13.13;;;6.93;;
18822;SDS011;9540;51.550;7.980;2023-01-19T05:57:04;9.17;;;5.77;;
18822;SDS011;9540;51.550;7.980;2023-01-19T05:59:32;14.97;;;7.10;;
18822;SDS011;9540;51.550;7.980;2023-01-19T06:02:00;10.43;;;6.43;;
18822;SDS011;9540;51.550;7.980;2023-01-19T06:04:28;11.03;;;6.77;;
18822;SDS011;9540;51.550;7.980;2023-01-19T06:06:55;10.77;;;7.40;;
18822;SDS011;9540;51.550;7.980;2023-01-19T06:09:22;13.47;;;7.77;;
18822;SDS011;9540;51.550;7.980;2023-01-19T06:11:49;10.87;;;7.40;;
18822;SDS011;9540;51.550;7.980;2023-01-19T06:14:18;17.23;;;7.93;;
18822;SDS011;9540;51.550;7.980;2023-01-19T06:16:45;16.03;;;7.50;;
18822;SDS011;9540;51.550;7.980;2023-01-19T06:19:13;15.80;;;8.50;;
18822;SDS011;9540;51.550;7.980;2023-01-19T06:21:40;27.50;;;10.60;;
18822;SDS011;9540;51.550;7.980;2023-01-19T06:24:13;23.70;;;11.23;;
18822;SDS011;9540;51.550;7.980;2023-01-19T06:26:40;14.80;;;7.97;;
18822;SDS011;9540;51.550;7.980;2023-01-19T06:29:08;17.43;;;8.67;;
18822;SDS011;9540;51.550;7.980;2023-01-19T06:31:36;14.83;;;8.43;;
18822;SDS011;9540;51.550;7.980;2023-01-19T06:34:03;16.70;;;8.53;;
18822;SDS011;9540;51.550;7.980;2023-01-19T06:36:32;13.20;;;8.10;;
18822;SDS011;9540;51.550;7.980;2023-01-19T06:38:59;14.13;;;7.40;;
18822;SDS011;9540;51.550;7.980;2023-01-19T06:41:29;10.33;;;6.80;;
18822;SDS011;9540;51.550;7.980;2023-01-19T06:43:57;10.63;;;7.17;;
18822;SDS011;9540;51.550;7.980;2023-01-19T06:46:24;11.60;;;7.63;;
18822;SDS011;9540;51.550;7.980;2023-01-19T06:48:51;13.67;;;7.67;;
18822;SDS011;9540;51.550;7.980;2023-01-19T06:51:19;12.07;;;7.53;;
18822;SDS011;9540;51.550;7.980;2023-01-19T06:53:47;15.63;;;7.30;;
18822;SDS011;9540;51.550;7.980;2023-01-19T06:56:15;11.57;;;7.20;;
18822;SDS011;9540;51.550;7.980;2023-01-19T06:58:42;14.17;;;8.43;;
18822;SDS011;9540;51.550;7.980;2023-01-19T07:01:09;17.03;;;8.40;;
18822;SDS011;9540;51.550;7.980;2023-01-19T07:03:36;10.70;;;7.03;;
18822;SDS011;9540;51.550;7.980;2023-01-19T07:06:04;15.47;;;8.07;;
18822;SDS011;9540;51.550;7.980;2023-01-19T07:08:31;18.47;;;7.50;;
18822;SDS011;9540;51.550;7.980;2023-01-19T07:11:00;10.67;;;7.10;;
18822;SDS011;9540;51.550;7.980;2023-01-19T07:13:30;7.73;;;6.37;;
18822;SDS011;9540;51.550;7.980;2023-01-19T07:15:58;9.73;;;6.23;;
18822;SDS011;9540;51.550;7.980;2023-01-19T07:18:29;10.17;;;6.67;;
18822;SDS011;9540;51.550;7.980;2023-01-19T07:20:56;10.90;;;6.93;;
18822;SDS011;9540;51.550;7.980;2023-01-19T07:23:23;10.23;;;6.47;;
18822;SDS011;9540;51.550;7.980;2023-01-19T07:25:54;8.97;;;6.20;;
18822;SDS011;9540;51.550;7.980;2023-01-19T07:28:23;9.93;;;5.93;;
18822;SDS011;9540;51.550;7.980;2023-01-19T07:30:50;9.50;;;6.27;;
18822;SDS011;9540;51.550;7.980;2023-01-19T07:33:18;10.30;;;6.37;;
18822;SDS011;9540;51.550;7.980;2023-01-19T07:35:46;9.17;;;6.20;;
18822;SDS011;9540;51.550;7.980;2023-01-19T07:38:13;10.07;;;5.43;;
18822;SDS011;9540;51.550;7.980;2023-01-19T07:40:40;8.33;;;6.03;;
18822;SDS011;9540;51.550;7.980;2023-01-19T07:43:08;7.33;;;5.60;;
18822;SDS011;9540;51.550;7.980;2023-01-19T07:45:36;7.97;;;5.60;;
18822;SDS011;9540;51.550;7.980;2023-01-19T07:48:04;7.07;;;4.97;;
18822;SDS011;9540;51.550;7.980;2023-01-19T07:50:31;9.53;;;6.10;;
18822;SDS011;9540;51.550;7.980;2023-01-19T07:53:03;8.80;;;6.17;;
18822;SDS011;9540;51.550;7.980;2023-01-19T07:55:31;10.13;;;6.37;;
18822;SDS011;9540;51.550;7.980;2023-01-19T07:57:58;10.90;;;6.40;;
18822;SDS011;9540;51.550;7.980;2023-01-19T08:00:25;11.13;;;6.27;;
18822;SDS011;9540;51.550;7.980;2023-01-19T08:02:57;7.80;;;6.57;;
18822;SDS011;9540;51.550;7.980;2023-01-19T08:05:25;8.10;;;6.53;;
18822;SDS011;9540;51.550;7.980;2023-01-19T08:07:53;10.13;;;6.50;;
18822;SDS011;9540;51.550;7.980;2023-01-19T08:10:22;9.53;;;6.50;;
18822;SDS011;9540;51.550;7.980;2023-01-19T08:12:50;8.20;;;6.13;;
18822;SDS011;9540;51.550;7.980;2023-01-19T08:15:19;9.17;;;6.33;;
18822;SDS011;9540;51.550;7.980;2023-01-19T08:17:54;9.07;;;5.80;;
18822;SDS011;9540;51.550;7.980;2023-01-19T08:20:22;10.83;;;7.20;;
18822;SDS011;9540;51.550;7.980;2023-01-19T08:22:50;11.33;;;5.90;;
18822;SDS011;9540;51.550;7.980;2023-01-19T08:25:23;6.03;;;4.70;;
18822;SDS011;9540;51.550;7.980;2023-01-19T08:27:52;7.43;;;5.00;;
18822;SDS011;9540;51.550;7.980;2023-01-19T08:30:20;5.93;;;5.10;;
18822;SDS011;9540;51.550;7.980;2023-01-19T08:32:50;5.87;;;4.83;;
18822;SDS011;9540;51.550;7.980;2023-01-19T08:35:19;5.73;;;5.10;;
18822;SDS011;9540;51.550;7.980;2023-01-19T08:37:46;7.47;;;4.20;;
18822;SDS011;9540;51.550;7.980;2023-01-19T08:40:13;6.77;;;4.90;;
18822;SDS011;9540;51.550;7.980;2023-01-19T08:42:42;5.17;;;4.17;;
18822;SDS011;9540;51.550;7.980;2023-01-19T08:45:09;5.90;;;4.20;;
18822;SDS011;9540;51.550;7.980;2023-01-19T08:47:37;7.47;;;4.50;;
18822;SDS011;9540;51.550;7.980;2023-01-19T08:50:04;8.03;;;4.70;;
18822;SDS011;9540;51.550;7.980;2023-01-19T08:52:33;5.67;;;4.30;;
18822;SDS011;9540;51.550;7.980;2023-01-19T08:55:00;6.43;;;4.90;;
18822;SDS011;9540;51.550;7.980;2023-01-19T08:57:27;7.00;;;5.10;;
18822;SDS011;9540;51.550;7.980;2023-01-19T08:59:54;10.10;;;6.43;;
18822;SDS011;9540;51.550;7.980;2023-01-19T09:02:21;8.80;;;6.73;;
18822;SDS011;9540;51.550;7.980;2023-01-19T09:04:49;11.73;;;6.20;;
18822;SDS011;9540;51.550;7.980;2023-01-19T09:07:17;10.20;;;7.00;;
18822;SDS011;9540;51.550;7.980;2023-01-19T09:09:45;13.80;;;7.50;;
18822;SDS011;9540;51.550;7.980;2023-01-19T09:12:13;16.97;;;8.10;;
18822;SDS011;9540;51.550;7.980;2023-01-19T09:14:40;13.03;;;7.30;;
18822;SDS011;9540;51.550;7.980;2023-01-19T09:17:08;15.37;;;7.93;;
18822;SDS011;9540;51.550;7.980;2023-01-19T09:19:35;19.07;;;9.67;;
18822;SDS011;9540;51.550;7.980;2023-01-19T09:22:02;21.73;;;10.53;;
18822;SDS011;9540;51.550;7.980;2023-01-19T09:24:30;20.57;;;9.77;;
18822;SDS011;9540;51.550;7.980;2023-01-19T09:27:00;20.53;;;10.00;;
18822;SDS011;9540;51.550;7.980;2023-01-19T09:29:27;20.70;;;9.80;;
18822;SDS011;9540;51.550;7.980;2023-01-19T09:31:54;23.70;;;10.27;;
18822;SDS011;9540;51.550;7.980;2023-01-19T09:34:22;21.93;;;11.03;;
18822;SDS011;9540;51.550;7.980;2023-01-19T09:36:50;20.63;;;10.73;;
18822;SDS011;9540;51.550;7.980;2023-01-19T09:39:17;24.27;;;11.37;;
18822;SDS011;9540;51.550;7.980;2023-01-19T09:41:45;26.87;;;11.97;;
18822;SDS011;9540;51.550;7.980;2023-01-19T09:44:23;24.10;;;10.50;;
18822;SDS011;9540;51.550;7.980;2023-01-19T09:46:54;24.37;;;10.57;;
18822;SDS011;9540;51.550;7.980;2023-01-19T09:49:23;22.37;;;11.20;;
18822;SDS011;9540;51.550;7.980;2023-01-19T09:51:56;22.37;;;10.87;;
18822;SDS011;9540;51.550;7.980;2023-01-19T09:54:27;23.90;;;11.33;;
18822;SDS011;9540;51.550;7.980;2023-01-19T09:56:58;19.90;;;11.03;;
18822;SDS011;9540;51.550;7.980;2023-01-19T09:59:27;22.30;;;11.73;;
18822;SDS011;9540;51.550;7.980;2023-01-19T10:04:51;27.40;;;12.60;;
18822;SDS011;9540;51.550;7.980;2023-01-19T10:07:28;22.83;;;12.30;;
18822;SDS011;9540;51.550;7.980;2023-01-19T10:10:07;32.47;;;14.17;;
18822;SDS011;9540;51.550;7.980;2023-01-19T10:12:42;34.10;;;14.80;;
18822;SDS011;9540;51.550;7.980;2023-01-19T10:15:19;47.53;;;15.63;;
18822;SDS011;9540;51.550;7.980;2023-01-19T10:17:56;42.20;;;18.67;;
18822;SDS011;9540;51.550;7.980;2023-01-19T10:20:32;40.43;;;19.03;;
18822;SDS011;9540;51.550;7.980;2023-01-19T10:23:02;50.90;;;19.70;;
18822;SDS011;9540;51.550;7.980;2023-01-19T10:25:40;42.37;;;19.27;;
18822;SDS011;9540;51.550;7.980;2023-01-19T10:28:07;43.43;;;20.13;;
18822;SDS011;9540;51.550;7.980;2023-01-19T10:30:38;45.03;;;20.13;;
18822;SDS011;9540;51.550;7.980;2023-01-19T10:33:10;50.40;;;21.50;;
18822;SDS011;9540;51.550;7.980;2023-01-19T10:35:39;53.73;;;21.53;;
18822;SDS011;9540;51.550;7.980;2023-01-19T10:38:07;49.13;;;21.17;;
18822;SDS011;9540;51.550;7.980;2023-01-19T10:40:43;48.87;;;21.47;;
18822;SDS011;9540;51.550;7.980;2023-01-19T10:48:57;49.97;;;22.30;;
18822;SDS011;9540;51.550;7.980;2023-01-19T10:51:24;52.47;;;22.57;;
18822;SDS011;9540;51.550;7.980;2023-01-19T10:53:56;44.03;;;21.77;;
18822;SDS011;9540;51.550;7.980;2023-01-19T10:56:26;53.23;;;21.80;;
18822;SDS011;9540;51.550;7.980;2023-01-19T10:58:58;45.33;;;21.87;;
18822;SDS011;9540;51.550;7.980;2023-01-19T11:01:28;50.13;;;22.80;;
18822;SDS011;9540;51.550;7.980;2023-01-19T11:04:00;53.70;;;22.43;;
18822;SDS011;9540;51.550;7.980;2023-01-19T11:06:45;46.93;;;21.60;;
18822;SDS011;9540;51.550;7.980;2023-01-19T11:09:16;41.40;;;19.40;;
18822;SDS011;9540;51.550;7.980;2023-01-19T11:11:45;38.43;;;20.63;;
18822;SDS011;9540;51.550;7.980;2023-01-19T11:14:16;38.67;;;19.20;;
18822;SDS011;9540;51.550;7.980;2023-01-19T11:16:50;38.33;;;20.37;;
18822;SDS011;9540;51.550;7.980;2023-01-19T11:19:24;35.90;;;18.30;;
18822;SDS011;9540;51.550;7.980;2023-01-19T11:21:52;40.33;;;20.07;;
18822;SDS011;9540;51.550;7.980;2023-01-19T11:24:36;40.47;;;20.47;;
18822;SDS011;9540;51.550;7.980;2023-01-19T11:27:04;49.57;;;20.83;;
18822;SDS011;9540;51.550;7.980;2023-01-19T11:29:32;36.37;;;19.50;;
18822;SDS011;9540;51.550;7.980;2023-01-19T11:32:09;47.10;;;21.07;;
18822;SDS011;9540;51.550;7.980;2023-01-19T11:34:44;44.30;;;21.83;;
18822;SDS011;9540;51.550;7.980;2023-01-19T11:37:24;44.70;;;22.97;;
18822;SDS011;9540;51.550;7.980;2023-01-19T11:39:54;53.67;;;23.03;;
18822;SDS011;9540;51.550;7.980;2023-01-19T11:42:23;57.37;;;26.27;;
18822;SDS011;9540;51.550;7.980;2023-01-19T11:44:56;41.53;;;22.33;;
18822;SDS011;9540;51.550;7.980;2023-01-19T11:47:29;49.40;;;21.20;;
18822;SDS011;9540;51.550;7.980;2023-01-19T11:50:03;46.70;;;21.87;;
18822;SDS011;9540;51.550;7.980;2023-01-19T11:52:36;38.30;;;20.43;;
18822;SDS011;9540;51.550;7.980;2023-01-19T11:55:11;45.33;;;19.70;;
18822;SDS011;9540;51.550;7.980;2023-01-19T11:57:44;39.23;;;19.67;;
18822;SDS011;9540;51.550;7.980;2023-01-19T12:00:18;41.33;;;20.67;;
18822;SDS011;9540;51.550;7.980;2023-01-19T12:02:54;49.83;;;22.87;;
18822;SDS011;9540;51.550;7.980;2023-01-19T12:05:29;43.53;;;22.93;;
18822;SDS011;9540;51.550;7.980;2023-01-19T12:07:59;50.03;;;23.57;;
18822;SDS011;9540;51.550;7.980;2023-01-19T12:10:34;50.00;;;23.63;;
18822;SDS011;9540;51.550;7.980;2023-01-19T12:13:05;51.83;;;24.33;;
18822;SDS011;9540;51.550;7.980;2023-01-19T12:15:37;49.07;;;23.77;;
18822;SDS011;9540;51.550;7.980;2023-01-19T12:18:15;42.03;;;22.30;;
18822;SDS011;9540;51.550;7.980;2023-01-19T12:20:47;37.53;;;20.43;;
18822;SDS011;9540;51.550;7.980;2023-01-19T12:23:20;49.80;;;22.50;;
18822;SDS011;9540;51.550;7.980;2023-01-19T12:26:02;38.63;;;20.83;;
18822;SDS011;9540;51.550;7.980;2023-01-19T12:28:41;36.50;;;19.07;;
18822;SDS011;9540;51.550;7.980;2023-01-19T12:31:12;42.03;;;19.13;;
18822;SDS011;9540;51.550;7.980;2023-01-19T12:33:42;44.77;;;20.97;;
18822;SDS011;9540;51.550;7.980;2023-01-19T12:36:10;46.77;;;22.97;;
18822;SDS011;9540;51.550;7.980;2023-01-19T12:39:00;45.13;;;21.50;;
18822;SDS011;9540;51.550;7.980;2023-01-19T12:41:30;39.27;;;21.60;;
18822;SDS011;9540;51.550;7.980;2023-01-19T12:46:54;52.10;;;23.30;;
18822;SDS011;9540;51.550;7.980;2023-01-19T12:49:29;57.50;;;22.20;;
18822;SDS011;9540;51.550;7.980;2023-01-19T12:52:14;43.17;;;21.30;;
18822;SDS011;9540;51.550;7.980;2023-01-19T12:54:52;50.27;;;21.77;;
18822;SDS011;9540;51.550;7.980;2023-01-19T12:57:24;47.33;;;22.53;;
18822;SDS011;9540;51.550;7.980;2023-01-19T12:59:54;49.43;;;23.83;;
18822;SDS011;9540;51.550;7.980;2023-01-19T13:02:35;49.23;;;21.97;;
18822;SDS011;9540;51.550;7.980;2023-01-19T13:08:28;42.57;;;21.60;;
18822;SDS011;9540;51.550;7.980;2023-01-19T13:11:22;48.90;;;21.67;;
18822;SDS011;9540;51.550;7.980;2023-01-19T13:16:57;47.07;;;20.47;;
18822;SDS011;9540;51.550;7.980;2023-01-19T13:19:58;45.47;;;21.83;;
18822;SDS011;9540;51.550;7.980;2023-01-19T13:23:10;43.77;;;21.67;;
18822;SDS011;9540;51.550;7.980;2023-01-19T13:25:50;43.47;;;19.70;;
18822;SDS011;9540;51.550;7.980;2023-01-19T13:28:23;49.50;;;20.33;;
18822;SDS011;9540;51.550;7.980;2023-01-19T13:30:57;41.50;;;21.13;;
18822;SDS011;9540;51.550;7.980;2023-01-19T13:33:27;40.53;;;19.90;;
18822;SDS011;9540;51.550;7.980;2023-01-19T13:36:00;49.97;;;20.47;;
18822;SDS011;9540;51.550;7.980;2023-01-19T13:38:29;46.33;;;20.50;;
18822;SDS011;9540;51.550;7.980;2023-01-19T13:40:57;51.40;;;21.63;;
18822;SDS011;9540;51.550;7.980;2023-01-19T13:43:31;49.13;;;21.93;;
18822;SDS011;9540;51.550;7.980;2023-01-19T13:46:02;66.13;;;22.70;;
18822;SDS011;9540;51.550;7.980;2023-01-19T13:48:29;56.30;;;23.37;;
18822;SDS011;9540;51.550;7.980;2023-01-19T13:51:00;55.17;;;23.77;;
18822;SDS011;9540;51.550;7.980;2023-01-19T13:53:36;50.30;;;24.17;;
18822;SDS011;9540;51.550;7.980;2023-01-19T13:56:04;56.10;;;23.73;;
18822;SDS011;9540;51.550;7.980;2023-01-19T13:58:33;53.23;;;24.23;;
18822;SDS011;9540;51.550;7.980;2023-01-19T14:01:00;49.37;;;23.20;;
18822;SDS011;9540;51.550;7.980;2023-01-19T14:03:27;56.67;;;24.07;;
18822;SDS011;9540;51.550;7.980;2023-01-19T14:05:56;50.00;;;22.63;;
18822;SDS011;9540;51.550;7.980;2023-01-19T14:08:23;47.97;;;21.17;;
18822;SDS011;9540;51.550;7.980;2023-01-19T14:11:01;52.33;;;21.43;;
18822;SDS011;9540;51.550;7.980;2023-01-19T14:13:29;55.43;;;23.13;;
18822;SDS011;9540;51.550;7.980;2023-01-19T14:15:59;48.73;;;22.03;;
18822;SDS011;9540;51.550;7.980;2023-01-19T14:18:33;49.50;;;22.37;;
18822;SDS011;9540;51.550;7.980;2023-01-19T14:21:02;55.43;;;22.77;;
18822;SDS011;9540;51.550;7.980;2023-01-19T14:23:47;48.53;;;21.50;;
18822;SDS011;9540;51.550;7.980;2023-01-19T14:29:21;42.77;;;21.27;;
18822;SDS011;9540;51.550;7.980;2023-01-19T14:31:51;43.77;;;21.47;;
18822;SDS011;9540;51.550;7.980;2023-01-19T14:34:34;42.50;;;19.77;;
18822;SDS011;9540;51.550;7.980;2023-01-19T14:37:04;56.97;;;22.97;;
18822;SDS011;9540;51.550;7.980;2023-01-19T14:39:42;43.37;;;19.90;;
18822;SDS011;9540;51.550;7.980;2023-01-19T14:42:13;48.23;;;20.70;;
18822;SDS011;9540;51.550;7.980;2023-01-19T14:44:46;50.40;;;21.47;;
18822;SDS011;9540;51.550;7.980;2023-01-19T14:47:20;49.77;;;20.47;;
18822;SDS011;9540;51.550;7.980;2023-01-19T14:49:51;48.70;;;22.27;;
18822;SDS011;9540;51.550;7.980;2023-01-19T14:52:23;47.00;;;20.47;;
18822;SDS011;9540;51.550;7.980;2023-01-19T14:54:52;54.37;;;22.40;;
18822;SDS011;9540;51.550;7.980;2023-01-19T14:57:21;48.07;;;21.17;;
18822;SDS011;9540;51.550;7.980;2023-01-19T14:59:48;49.27;;;22.10;;
18822;SDS011;9540;51.550;7.980;2023-01-19T15:02:16;48.17;;;22.37;;
18822;SDS011;9540;51.550;7.980;2023-01-19T15:04:43;54.03;;;23.20;;
18822;SDS011;9540;51.550;7.980;2023-01-19T15:07:14;57.20;;;23.90;;
18822;SDS011;9540;51.550;7.980;2023-01-19T15:09:44;50.23;;;22.13;;
18822;SDS011;9540;51.550;7.980;2023-01-19T15:12:12;52.73;;;24.07;;
18822;SDS011;9540;51.550;7.980;2023-01-19T15:14:42;55.47;;;23.43;;
18822;SDS011;9540;51.550;7.980;2023-01-19T15:17:13;56.63;;;23.03;;
18822;SDS011;9540;51.550;7.980;2023-01-19T15:19:49;48.93;;;21.93;;
18822;SDS011;9540;51.550;7.980;2023-01-19T15:22:17;52.00;;;22.23;;
18822;SDS011;9540;51.550;7.980;2023-01-19T15:24:46;56.67;;;22.30;;